createdAt,value
2018-07-30T00:00:53.504Z,0.00
2018-07-30T00:01:53.446Z,0.00
2018-07-30T00:02:53.388Z,0.00
2018-07-30T00:03:53.328Z,0.00
2018-07-30T00:04:53.270Z,0.00
2018-07-30T00:05:53.215Z,0.00
2018-07-30T00:06:53.159Z,0.00
2018-07-30T00:07:53.096Z,0.00
2018-07-30T00:08:53.038Z,0.00
2018-07-30T00:09:52.983Z,0.00
2018-07-30T00:10:52.924Z,0.00
2018-07-30T00:11:52.866Z,0.00
2018-07-30T00:12:52.807Z,0.00
2018-07-30T00:13:52.747Z,0.00
2018-07-30T00:14:52.692Z,0.00
2018-07-30T00:15:52.639Z,0.00
2018-07-30T00:16:52.577Z,0.00
2018-07-30T00:17:52.517Z,0.00
2018-07-30T00:18:52.467Z,0.00
2018-07-30T00:19:52.399Z,0.00
2018-07-30T00:20:52.348Z,0.00
2018-07-30T00:21:52.290Z,0.00
2018-07-30T00:22:52.228Z,0.00
2018-07-30T00:23:52.170Z,0.00
2018-07-30T00:24:52.112Z,0.00
2018-07-30T00:25:52.052Z,0.00
2018-07-30T00:26:51.997Z,0.00
2018-07-30T00:27:51.937Z,0.00
2018-07-30T00:28:51.879Z,0.00
2018-07-30T00:29:51.822Z,0.00
2018-07-30T00:30:51.764Z,0.00
2018-07-30T00:31:51.706Z,0.00
2018-07-30T00:32:51.647Z,0.00
2018-07-30T00:33:51.590Z,0.00
2018-07-30T00:34:51.532Z,0.00
2018-07-30T00:35:51.472Z,0.00
2018-07-30T00:36:51.414Z,0.00
2018-07-30T00:37:51.356Z,0.00
2018-07-30T00:38:51.299Z,0.00
2018-07-30T00:39:51.239Z,0.00
2018-07-30T00:40:51.183Z,0.00
2018-07-30T00:41:51.125Z,0.00
2018-07-30T00:42:51.071Z,0.00
2018-07-30T00:43:51.009Z,0.00
2018-07-30T00:44:50.951Z,0.00
2018-07-30T00:45:50.894Z,0.00
2018-07-30T00:46:50.835Z,0.00
2018-07-30T00:47:50.776Z,0.00
2018-07-30T00:48:50.718Z,0.00
2018-07-30T00:49:50.660Z,0.00
2018-07-30T00:50:50.603Z,0.00
2018-07-30T00:51:50.545Z,0.00
2018-07-30T00:52:50.485Z,0.00
2018-07-30T00:53:50.428Z,0.00
2018-07-30T00:54:50.381Z,0.00
2018-07-30T00:55:50.313Z,0.00
2018-07-30T00:56:50.294Z,0.00
2018-07-30T00:57:50.196Z,0.00
2018-07-30T00:58:50.139Z,0.00
2018-07-30T00:59:50.079Z,0.00
2018-07-30T01:00:50.022Z,0.00
2018-07-30T01:01:49.962Z,0.00
2018-07-30T01:02:49.909Z,0.00
2018-07-30T01:03:49.845Z,0.00
2018-07-30T01:04:49.789Z,0.00
2018-07-30T01:05:49.731Z,0.00
2018-07-30T01:06:49.673Z,0.00
2018-07-30T01:07:49.614Z,0.00
2018-07-30T01:08:49.556Z,0.00
2018-07-30T01:09:49.497Z,0.00
2018-07-30T01:10:49.439Z,0.00
2018-07-30T01:11:49.379Z,0.00
2018-07-30T01:12:49.322Z,0.00
2018-07-30T01:13:49.262Z,0.00
2018-07-30T01:14:49.206Z,0.00
2018-07-30T01:15:49.147Z,0.00
2018-07-30T01:16:49.091Z,0.00
2018-07-30T01:17:49.031Z,0.00
2018-07-30T01:18:48.973Z,0.00
2018-07-30T01:19:48.916Z,0.00
2018-07-30T01:20:48.856Z,0.00
2018-07-30T01:21:48.797Z,0.00
2018-07-30T01:22:48.740Z,0.00
2018-07-30T01:23:48.682Z,0.00
2018-07-30T01:24:48.621Z,0.00
2018-07-30T01:25:48.564Z,0.00
2018-07-30T01:26:48.505Z,0.00
2018-07-30T01:27:48.447Z,0.00
2018-07-30T01:28:48.389Z,0.00
2018-07-30T01:29:48.332Z,0.00
2018-07-30T01:30:48.273Z,0.00
2018-07-30T01:31:48.214Z,0.00
2018-07-30T01:32:48.155Z,0.00
2018-07-30T01:33:48.099Z,0.00
2018-07-30T01:34:48.040Z,0.00
2018-07-30T01:35:47.982Z,0.00
2018-07-30T01:36:47.920Z,0.00
2018-07-30T01:37:47.864Z,0.00
2018-07-30T01:38:47.806Z,0.00
2018-07-30T01:39:47.747Z,0.00
2018-07-30T01:40:47.690Z,0.00
2018-07-30T01:41:47.629Z,0.00
2018-07-30T01:42:47.572Z,0.00
2018-07-30T01:43:47.513Z,0.00
2018-07-30T01:44:47.458Z,0.00
2018-07-30T01:45:47.396Z,0.00
2018-07-30T01:46:47.337Z,0.00
2018-07-30T01:47:47.278Z,0.00
2018-07-30T01:48:47.221Z,0.00
2018-07-30T01:49:47.161Z,0.00
2018-07-30T01:50:47.104Z,0.00
2018-07-30T01:51:47.048Z,0.00
2018-07-30T01:52:46.984Z,0.00
2018-07-30T01:53:46.927Z,0.00
2018-07-30T01:54:46.872Z,0.00
2018-07-30T01:55:46.811Z,0.00
2018-07-30T01:56:46.753Z,0.00
2018-07-30T01:57:46.692Z,0.00
2018-07-30T01:58:46.638Z,0.00
2018-07-30T01:59:46.576Z,0.00
2018-07-30T02:00:46.518Z,0.00
2018-07-30T02:01:46.459Z,0.00
2018-07-30T02:02:46.400Z,0.00
2018-07-30T02:03:46.342Z,0.00
2018-07-30T02:04:46.284Z,0.00
2018-07-30T02:05:46.225Z,0.00
2018-07-30T02:06:46.167Z,0.00
2018-07-30T02:07:46.107Z,0.00
2018-07-30T02:08:46.049Z,0.00
2018-07-30T02:09:45.991Z,0.00
2018-07-30T02:10:45.938Z,0.00
2018-07-30T02:11:45.874Z,0.00
2018-07-30T02:12:45.814Z,0.00
2018-07-30T02:13:45.755Z,0.00
2018-07-30T02:14:45.697Z,0.00
2018-07-30T02:15:45.642Z,0.00
2018-07-30T02:16:45.583Z,0.00
2018-07-30T02:17:45.521Z,0.00
2018-07-30T02:18:45.465Z,0.00
2018-07-30T02:19:45.404Z,0.00
2018-07-30T02:20:45.352Z,0.00
2018-07-30T02:21:45.286Z,0.00
2018-07-30T02:22:45.230Z,0.00
2018-07-30T02:23:45.167Z,0.00
2018-07-30T02:24:45.113Z,0.00
2018-07-30T02:25:45.051Z,0.00
2018-07-30T02:26:44.994Z,0.00
2018-07-30T02:27:44.934Z,0.00
2018-07-30T02:28:44.875Z,0.00
2018-07-30T02:29:44.817Z,0.00
2018-07-30T02:30:44.760Z,0.00
2018-07-30T02:31:44.700Z,0.00
2018-07-30T02:32:44.641Z,0.00
2018-07-30T02:33:44.583Z,0.00
2018-07-30T02:34:44.524Z,0.00
2018-07-30T02:35:44.465Z,0.00
2018-07-30T02:36:44.405Z,0.00
2018-07-30T02:37:44.348Z,0.00
2018-07-30T02:38:44.288Z,0.00
2018-07-30T02:39:44.230Z,0.00
2018-07-30T02:40:44.171Z,0.00
2018-07-30T02:41:44.115Z,0.00
2018-07-30T02:42:44.063Z,0.00
2018-07-30T02:43:43.994Z,0.00
2018-07-30T02:44:43.938Z,0.00
2018-07-30T02:45:43.878Z,0.00
2018-07-30T02:46:43.824Z,0.00
2018-07-30T02:47:43.762Z,0.00
2018-07-30T02:48:43.702Z,0.00
2018-07-30T02:49:43.641Z,0.00
2018-07-30T02:50:43.596Z,0.00
2018-07-30T02:51:43.524Z,0.00
2018-07-30T02:52:43.469Z,0.00
2018-07-30T02:53:43.409Z,0.00
2018-07-30T02:54:43.351Z,0.00
2018-07-30T02:55:43.289Z,0.00
2018-07-30T02:56:43.234Z,0.00
2018-07-30T02:57:43.183Z,0.00
2018-07-30T02:58:43.124Z,0.00
2018-07-30T02:59:43.055Z,0.00
2018-07-30T03:00:42.994Z,0.00
2018-07-30T03:01:42.938Z,0.00
2018-07-30T03:02:42.882Z,0.00
2018-07-30T03:03:42.823Z,0.00
2018-07-30T03:04:42.760Z,0.00
2018-07-30T03:05:42.701Z,0.00
2018-07-30T03:06:42.644Z,0.00
2018-07-30T03:07:42.585Z,0.00
2018-07-30T03:08:42.525Z,0.00
2018-07-30T03:09:42.467Z,0.00
2018-07-30T03:10:42.409Z,0.00
2018-07-30T03:11:42.350Z,0.00
2018-07-30T03:12:42.291Z,0.00
2018-07-30T03:13:42.232Z,0.00
2018-07-30T03:14:42.175Z,0.00
2018-07-30T03:15:42.118Z,0.00
2018-07-30T03:16:42.057Z,0.00
2018-07-30T03:17:41.997Z,0.00
2018-07-30T03:18:41.938Z,0.00
2018-07-30T03:19:41.882Z,0.00
2018-07-30T03:20:41.823Z,4.00
2018-07-30T03:21:41.760Z,4.00
2018-07-30T03:22:41.704Z,0.00
2018-07-30T03:23:41.653Z,4.00
2018-07-30T03:24:41.585Z,4.00
2018-07-30T03:25:41.529Z,4.00
2018-07-30T03:26:41.467Z,4.00
2018-07-30T03:27:41.407Z,8.00
2018-07-30T03:28:41.408Z,4.00
2018-07-30T03:29:41.290Z,8.00
2018-07-30T03:30:41.233Z,8.00
2018-07-30T03:31:41.175Z,12.00
2018-07-30T03:32:41.114Z,12.00
2018-07-30T03:33:41.054Z,12.00
2018-07-30T03:34:40.997Z,16.00
2018-07-30T03:35:40.937Z,16.00
2018-07-30T03:36:40.878Z,20.00
2018-07-30T03:37:40.820Z,20.00
2018-07-30T03:38:40.766Z,24.00
2018-07-30T03:39:40.698Z,24.00
2018-07-30T03:40:40.641Z,28.00
2018-07-30T03:41:40.583Z,32.00
2018-07-30T03:42:40.525Z,36.00
2018-07-30T03:43:40.465Z,36.00
2018-07-30T03:44:40.406Z,40.00
2018-07-30T03:45:40.348Z,48.00
2018-07-30T03:46:40.289Z,48.00
2018-07-30T03:47:40.229Z,56.00
2018-07-30T03:48:40.171Z,60.00
2018-07-30T03:49:40.112Z,64.00
2018-07-30T03:50:40.054Z,68.00
2018-07-30T03:51:39.993Z,76.00
2018-07-30T03:52:39.934Z,84.00
2018-07-30T03:53:39.876Z,88.00
2018-07-30T03:54:39.825Z,100.00
2018-07-30T03:55:39.756Z,108.00
2018-07-30T03:56:39.699Z,116.00
2018-07-30T03:57:39.638Z,120.00
2018-07-30T03:58:39.581Z,128.00
2018-07-30T03:59:39.519Z,140.00
2018-07-30T04:00:39.486Z,148.00
2018-07-30T04:01:39.407Z,160.00
2018-07-30T04:02:39.342Z,168.00
2018-07-30T04:03:39.282Z,176.00
2018-07-30T04:04:39.225Z,188.00
2018-07-30T04:05:39.167Z,196.00
2018-07-30T04:06:39.108Z,208.00
2018-07-30T04:07:39.046Z,220.00
2018-07-30T04:08:38.989Z,228.00
2018-07-30T04:09:38.929Z,240.00
2018-07-30T04:10:38.871Z,252.00
2018-07-30T04:11:38.809Z,264.00
2018-07-30T04:12:38.779Z,280.00
2018-07-30T04:13:38.695Z,292.00
2018-07-30T04:14:38.635Z,308.00
2018-07-30T04:15:38.575Z,324.00
2018-07-30T04:16:38.515Z,340.00
2018-07-30T04:17:38.460Z,356.00
2018-07-30T04:18:38.399Z,376.00
2018-07-30T04:19:38.338Z,396.00
2018-07-30T04:20:38.278Z,412.00
2018-07-30T04:21:38.222Z,432.00
2018-07-30T04:22:38.162Z,456.00
2018-07-30T04:23:38.101Z,480.00
2018-07-30T04:24:38.042Z,508.00
2018-07-30T04:25:37.984Z,540.00
2018-07-30T04:26:37.923Z,576.00
2018-07-30T04:27:37.864Z,608.00
2018-07-30T04:28:37.807Z,644.00
2018-07-30T04:29:37.745Z,688.00
2018-07-30T04:30:37.687Z,736.00
2018-07-30T04:31:37.626Z,780.00
2018-07-30T04:32:37.568Z,812.00
2018-07-30T04:33:37.509Z,832.00
2018-07-30T04:34:37.450Z,840.00
2018-07-30T04:35:37.392Z,848.00
2018-07-30T04:36:37.332Z,864.00
2018-07-30T04:37:37.271Z,884.00
2018-07-30T04:38:37.214Z,908.00
2018-07-30T04:39:37.154Z,940.00
2018-07-30T04:40:37.094Z,988.00
2018-07-30T04:41:37.036Z,1028.00
2018-07-30T04:42:36.976Z,1040.00
2018-07-30T04:43:36.935Z,1060.00
2018-07-30T04:44:36.859Z,1056.00
2018-07-30T04:45:36.799Z,1048.00
2018-07-30T04:46:36.740Z,1072.00
2018-07-30T04:47:36.681Z,1076.00
2018-07-30T04:48:36.622Z,1072.00
2018-07-30T04:49:36.568Z,1072.00
2018-07-30T04:50:36.550Z,1076.00
2018-07-30T04:51:36.445Z,1056.00
2018-07-30T04:52:36.386Z,1036.00
2018-07-30T04:53:36.326Z,1028.00
2018-07-30T04:54:36.269Z,1020.00
2018-07-30T04:55:36.210Z,1008.00
2018-07-30T04:56:36.151Z,980.00
2018-07-30T04:57:36.093Z,956.00
2018-07-30T04:58:36.033Z,944.00
2018-07-30T04:59:35.974Z,936.00
2018-07-30T05:00:35.915Z,936.00
2018-07-30T05:01:35.858Z,928.00
2018-07-30T05:02:35.803Z,916.00
2018-07-30T05:03:35.738Z,896.00
2018-07-30T05:04:35.680Z,880.00
2018-07-30T05:05:35.621Z,864.00
2018-07-30T05:06:35.559Z,852.00
2018-07-30T05:07:35.503Z,844.00
2018-07-30T05:08:35.444Z,840.00
2018-07-30T05:09:35.385Z,828.00
2018-07-30T05:10:35.325Z,808.00
2018-07-30T05:11:35.268Z,780.00
2018-07-30T05:12:35.208Z,692.00
2018-07-30T05:13:35.150Z,760.00
2018-07-30T05:14:35.093Z,724.00
2018-07-30T05:15:35.032Z,716.00
2018-07-30T05:16:34.973Z,848.00
2018-07-30T05:17:34.915Z,908.00
2018-07-30T05:18:34.856Z,900.00
2018-07-30T05:19:34.799Z,1028.00
2018-07-30T05:20:34.737Z,896.00
2018-07-30T05:21:34.681Z,940.00
2018-07-30T05:22:34.621Z,1068.00
2018-07-30T05:23:34.563Z,1132.00
2018-07-30T05:24:34.504Z,1160.00
2018-07-30T05:25:34.467Z,1152.00
2018-07-30T05:26:34.385Z,1140.00
2018-07-30T05:27:34.327Z,1156.00
2018-07-30T05:28:34.267Z,1016.00
2018-07-30T05:29:34.211Z,880.00
2018-07-30T05:30:34.151Z,828.00
2018-07-30T05:31:34.120Z,868.00
2018-07-30T05:32:34.037Z,1152.00
2018-07-30T05:33:33.977Z,1336.00
2018-07-30T05:34:33.915Z,1352.00
2018-07-30T05:35:33.856Z,1364.00
2018-07-30T05:36:33.798Z,1372.00
2018-07-30T05:37:33.740Z,1384.00
2018-07-30T05:38:33.682Z,1388.00
2018-07-30T05:39:33.624Z,1396.00
2018-07-30T05:40:33.565Z,1404.00
2018-07-30T05:41:33.506Z,1408.00
2018-07-30T05:42:33.448Z,1392.00
2018-07-30T05:43:33.421Z,1336.00
2018-07-30T05:44:33.332Z,1396.00
2018-07-30T05:45:33.274Z,1484.00
2018-07-30T05:46:33.212Z,1484.00
2018-07-30T05:47:33.154Z,1500.00
2018-07-30T05:48:33.099Z,1512.00
2018-07-30T05:49:33.050Z,1520.00
2018-07-30T05:50:32.979Z,1532.00
2018-07-30T05:51:32.921Z,1548.00
2018-07-30T05:52:32.861Z,1560.00
2018-07-30T05:53:32.803Z,1572.00
2018-07-30T05:54:32.745Z,1588.00
2018-07-30T05:55:32.684Z,1600.00
2018-07-30T05:56:32.626Z,1612.00
2018-07-30T05:57:32.567Z,1624.00
2018-07-30T05:58:32.509Z,1636.00
2018-07-30T05:59:32.556Z,1644.00
2018-07-30T06:00:32.397Z,1656.00
2018-07-30T06:01:32.333Z,1668.00
2018-07-30T06:02:32.278Z,1676.00
2018-07-30T06:03:32.217Z,1688.00
2018-07-30T06:04:32.159Z,1700.00
2018-07-30T06:05:32.115Z,1712.00
2018-07-30T06:06:32.043Z,1720.00
2018-07-30T06:07:31.982Z,1732.00
2018-07-30T06:08:31.928Z,1740.00
2018-07-30T06:09:31.884Z,1752.00
2018-07-30T06:10:31.808Z,1756.00
2018-07-30T06:11:31.764Z,1768.00
2018-07-30T06:12:31.694Z,1776.00
2018-07-30T06:13:31.634Z,1784.00
2018-07-30T06:14:31.577Z,1792.00
2018-07-30T06:15:31.517Z,1804.00
2018-07-30T06:16:31.459Z,1816.00
2018-07-30T06:17:31.401Z,1824.00
2018-07-30T06:18:31.344Z,1836.00
2018-07-30T06:19:31.284Z,1844.00
2018-07-30T06:20:31.226Z,1856.00
2018-07-30T06:21:31.169Z,1868.00
2018-07-30T06:22:31.113Z,1876.00
2018-07-30T06:23:31.052Z,1892.00
2018-07-30T06:24:30.993Z,1908.00
2018-07-30T06:25:30.936Z,1920.00
2018-07-30T06:26:30.950Z,1928.00
2018-07-30T06:27:30.924Z,1940.00
2018-07-30T06:28:30.762Z,1948.00
2018-07-30T06:29:30.705Z,1960.00
2018-07-30T06:30:30.649Z,1964.00
2018-07-30T06:31:30.588Z,1980.00
2018-07-30T06:32:30.531Z,1992.00
2018-07-30T06:33:30.473Z,2004.00
2018-07-30T06:34:30.414Z,2016.00
2018-07-30T06:35:30.357Z,2024.00
2018-07-30T06:36:30.301Z,2036.00
2018-07-30T06:37:30.243Z,2048.00
2018-07-30T06:38:30.242Z,2052.00
2018-07-30T06:39:30.126Z,2060.00
2018-07-30T06:40:30.070Z,2068.00
2018-07-30T06:41:30.009Z,2080.00
2018-07-30T06:42:29.955Z,2092.00
2018-07-30T06:43:29.894Z,2104.00
2018-07-30T06:44:29.836Z,2116.00
2018-07-30T06:45:29.780Z,2120.00
2018-07-30T06:46:29.724Z,2132.00
2018-07-30T06:47:29.663Z,2132.00
2018-07-30T06:48:29.608Z,2140.00
2018-07-30T06:49:29.549Z,2156.00
2018-07-30T06:50:29.494Z,2160.00
2018-07-30T06:51:29.434Z,2176.00
2018-07-30T06:52:29.376Z,2184.00
2018-07-30T06:53:29.318Z,2188.00
2018-07-30T06:54:29.262Z,2204.00
2018-07-30T06:55:29.202Z,2212.00
2018-07-30T06:56:29.147Z,2224.00
2018-07-30T06:57:29.090Z,2232.00
2018-07-30T06:58:29.032Z,2236.00
2018-07-30T06:59:28.973Z,2248.00
2018-07-30T07:00:28.915Z,2260.00
2018-07-30T07:01:28.857Z,2272.00
2018-07-30T07:02:28.804Z,2280.00
2018-07-30T07:03:28.744Z,2288.00
2018-07-30T07:04:28.686Z,2296.00
2018-07-30T07:05:28.629Z,2308.00
2018-07-30T07:06:28.571Z,2316.00
2018-07-30T07:07:28.513Z,2328.00
2018-07-30T07:08:28.455Z,2336.00
2018-07-30T07:09:28.401Z,2348.00
2018-07-30T07:10:28.342Z,2356.00
2018-07-30T07:11:28.285Z,2364.00
2018-07-30T07:12:28.226Z,2384.00
2018-07-30T07:13:28.169Z,2400.00
2018-07-30T07:14:28.113Z,2412.00
2018-07-30T07:15:28.055Z,2428.00
2018-07-30T07:16:28.031Z,2436.00
2018-07-30T07:17:27.942Z,2444.00
2018-07-30T07:18:27.885Z,2456.00
2018-07-30T07:19:27.828Z,2464.00
2018-07-30T07:20:27.768Z,2472.00
2018-07-30T07:21:27.789Z,2480.00
2018-07-30T07:22:27.656Z,2496.00
2018-07-30T07:23:27.598Z,2508.00
2018-07-30T07:24:27.543Z,2516.00
2018-07-30T07:25:27.484Z,2528.00
2018-07-30T07:26:27.428Z,2536.00
2018-07-30T07:27:27.370Z,2548.00
2018-07-30T07:28:27.313Z,2556.00
2018-07-30T07:29:27.255Z,2560.00
2018-07-30T07:30:27.201Z,2568.00
2018-07-30T07:31:27.161Z,2572.00
2018-07-30T07:32:27.088Z,2572.00
2018-07-30T07:33:27.029Z,2584.00
2018-07-30T07:34:26.974Z,2588.00
2018-07-30T07:35:26.915Z,2596.00
2018-07-30T07:36:26.859Z,2608.00
2018-07-30T07:37:26.802Z,2616.00
2018-07-30T07:38:26.746Z,2620.00
2018-07-30T07:39:26.690Z,2628.00
2018-07-30T07:40:26.725Z,2632.00
2018-07-30T07:41:26.575Z,2640.00
2018-07-30T07:42:26.519Z,2648.00
2018-07-30T07:43:26.462Z,2652.00
2018-07-30T07:44:26.404Z,2664.00
2018-07-30T07:45:26.353Z,2680.00
2018-07-30T07:46:26.292Z,2696.00
2018-07-30T07:47:26.235Z,2700.00
2018-07-30T07:48:26.178Z,2712.00
2018-07-30T07:49:26.122Z,2716.00
2018-07-30T07:50:26.123Z,2720.00
2018-07-30T07:51:26.010Z,2716.00
2018-07-30T07:52:25.953Z,2744.00
2018-07-30T07:53:25.898Z,2748.00
2018-07-30T07:54:25.842Z,2768.00
2018-07-30T07:55:25.783Z,2772.00
2018-07-30T07:56:25.726Z,2780.00
2018-07-30T07:57:25.671Z,2784.00
2018-07-30T07:58:25.617Z,2792.00
2018-07-30T07:59:25.556Z,2792.00
2018-07-30T08:00:25.499Z,2796.00
2018-07-30T08:01:25.446Z,2808.00
2018-07-30T08:02:25.391Z,2812.00
2018-07-30T08:03:25.331Z,2812.00
2018-07-30T08:04:25.276Z,2816.00
2018-07-30T08:05:25.225Z,2828.00
2018-07-30T08:06:25.165Z,2836.00
2018-07-30T08:07:25.107Z,2840.00
2018-07-30T08:08:25.052Z,2840.00
2018-07-30T08:09:24.995Z,2852.00
2018-07-30T08:10:24.936Z,2856.00
2018-07-30T08:11:24.886Z,2856.00
2018-07-30T08:12:24.829Z,2856.00
2018-07-30T08:13:24.781Z,2868.00
2018-07-30T08:14:24.716Z,2884.00
2018-07-30T08:15:24.659Z,2888.00
2018-07-30T08:16:24.647Z,2888.00
2018-07-30T08:17:24.548Z,2896.00
2018-07-30T08:18:24.498Z,2904.00
2018-07-30T08:19:24.435Z,2912.00
2018-07-30T08:20:24.378Z,2916.00
2018-07-30T08:21:24.322Z,2920.00
2018-07-30T08:22:24.373Z,2936.00
2018-07-30T08:23:24.210Z,2940.00
2018-07-30T08:24:24.155Z,2948.00
2018-07-30T08:25:24.100Z,2960.00
2018-07-30T08:26:24.044Z,2968.00
2018-07-30T08:27:23.988Z,2976.00
2018-07-30T08:28:23.933Z,2980.00
2018-07-30T08:29:23.877Z,2984.00
2018-07-30T08:30:23.821Z,2992.00
2018-07-30T08:31:23.764Z,3008.00
2018-07-30T08:32:23.710Z,3004.00
2018-07-30T08:33:23.655Z,3020.00
2018-07-30T08:34:23.598Z,3036.00
2018-07-30T08:35:23.542Z,3052.00
2018-07-30T08:36:23.486Z,3064.00
2018-07-30T08:37:23.431Z,3072.00
2018-07-30T08:38:23.430Z,3084.00
2018-07-30T08:39:23.320Z,3092.00
2018-07-30T08:40:23.262Z,3104.00
2018-07-30T08:41:23.209Z,3108.00
2018-07-30T08:42:23.243Z,3112.00
2018-07-30T08:43:23.097Z,3124.00
2018-07-30T08:44:23.041Z,3136.00
2018-07-30T08:45:22.985Z,3144.00
2018-07-30T08:46:22.932Z,3152.00
2018-07-30T08:47:22.875Z,3160.00
2018-07-30T08:48:22.821Z,3172.00
2018-07-30T08:49:22.763Z,3188.00
2018-07-30T08:50:22.709Z,3200.00
2018-07-30T08:51:22.652Z,3220.00
2018-07-30T08:52:22.597Z,3232.00
2018-07-30T08:53:22.542Z,3248.00
2018-07-30T08:54:22.487Z,3272.00
2018-07-30T08:55:22.432Z,3292.00
2018-07-30T08:56:22.429Z,3304.00
2018-07-30T08:57:22.323Z,3324.00
2018-07-30T08:58:22.268Z,3340.00
2018-07-30T08:59:22.211Z,3356.00
2018-07-30T09:00:22.156Z,3380.00
2018-07-30T09:01:22.101Z,3396.00
2018-07-30T09:02:22.046Z,3404.00
2018-07-30T09:03:21.991Z,3416.00
2018-07-30T09:04:21.940Z,3436.00
2018-07-30T09:05:21.882Z,3468.00
2018-07-30T09:06:21.828Z,3480.00
2018-07-30T09:07:21.770Z,3492.00
2018-07-30T09:08:21.717Z,3504.00
2018-07-30T09:09:21.661Z,3520.00
2018-07-30T09:10:21.609Z,3528.00
2018-07-30T09:11:21.551Z,3548.00
2018-07-30T09:12:21.554Z,3564.00
2018-07-30T09:13:21.441Z,3584.00
2018-07-30T09:14:21.387Z,3596.00
2018-07-30T09:15:21.330Z,3608.00
2018-07-30T09:16:21.276Z,3628.00
2018-07-30T09:17:21.328Z,3636.00
2018-07-30T09:18:21.215Z,3656.00
2018-07-30T09:19:21.111Z,3660.00
2018-07-30T09:20:21.057Z,3668.00
2018-07-30T09:21:21.003Z,3680.00
2018-07-30T09:22:20.948Z,3692.00
2018-07-30T09:23:20.892Z,3708.00
2018-07-30T09:24:20.839Z,3724.00
2018-07-30T09:25:20.784Z,3740.00
2018-07-30T09:26:20.731Z,3760.00
2018-07-30T09:27:20.674Z,3776.00
2018-07-30T09:28:20.620Z,3792.00
2018-07-30T09:29:20.565Z,3808.00
2018-07-30T09:30:20.513Z,3816.00
2018-07-30T09:31:20.455Z,3824.00
2018-07-30T09:32:20.402Z,3844.00
2018-07-30T09:33:20.350Z,3860.00
2018-07-30T09:34:20.294Z,3872.00
2018-07-30T09:35:20.242Z,3888.00
2018-07-30T09:36:20.185Z,3908.00
2018-07-30T09:37:20.131Z,3928.00
2018-07-30T09:38:20.078Z,3948.00
2018-07-30T09:39:20.030Z,3968.00
2018-07-30T09:40:19.968Z,3996.00
2018-07-30T09:41:19.915Z,4044.00
2018-07-30T09:42:19.860Z,4116.00
2018-07-30T09:43:19.805Z,4256.00
2018-07-30T09:44:19.755Z,4488.00
2018-07-30T09:45:19.701Z,4940.00
2018-07-30T09:46:19.645Z,5900.00
2018-07-30T09:47:19.592Z,7188.00
2018-07-30T09:48:19.538Z,8308.00
2018-07-30T09:49:19.485Z,8756.00
2018-07-30T09:50:19.432Z,8972.00
2018-07-30T09:51:19.380Z,9184.00
2018-07-30T09:52:19.330Z,9268.00
2018-07-30T09:53:19.274Z,9300.00
2018-07-30T09:54:19.223Z,9448.00
2018-07-30T09:55:19.172Z,9556.00
2018-07-30T09:56:19.204Z,9712.00
2018-07-30T09:57:19.072Z,9740.00
2018-07-30T09:58:19.020Z,9792.00
2018-07-30T09:59:18.996Z,9784.00
2018-07-30T10:00:18.926Z,10032.00
2018-07-30T10:01:18.873Z,10336.00
2018-07-30T10:02:18.821Z,10780.00
2018-07-30T10:03:18.775Z,11328.00
2018-07-30T10:04:18.725Z,12084.00
2018-07-30T10:05:18.676Z,13040.00
2018-07-30T10:06:18.692Z,13376.00
2018-07-30T10:07:18.586Z,13792.00
2018-07-30T10:08:18.533Z,16640.00
2018-07-30T10:09:18.487Z,18016.00
2018-07-30T10:10:18.453Z,16128.00
2018-07-30T10:11:18.395Z,15008.00
2018-07-30T10:12:18.347Z,13608.00
2018-07-30T10:13:18.303Z,12784.00
2018-07-30T10:14:18.256Z,11724.00
2018-07-30T10:15:18.208Z,10792.00
2018-07-30T10:16:18.164Z,10220.00
2018-07-30T10:17:18.118Z,9564.00
2018-07-30T10:18:18.143Z,9028.00
2018-07-30T10:19:18.028Z,8716.00
2018-07-30T10:20:17.984Z,8492.00
2018-07-30T10:21:17.939Z,8408.00
2018-07-30T10:22:17.892Z,8300.00
2018-07-30T10:23:17.849Z,8116.00
2018-07-30T10:24:17.804Z,7916.00
2018-07-30T10:25:17.758Z,7784.00
2018-07-30T10:26:17.714Z,7672.00
2018-07-30T10:27:17.681Z,7520.00
2018-07-30T10:28:17.624Z,7348.00
2018-07-30T10:29:17.583Z,7216.00
2018-07-30T10:30:17.535Z,7124.00
2018-07-30T10:31:17.492Z,7000.00
2018-07-30T10:32:17.446Z,6836.00
2018-07-30T10:33:17.403Z,6744.00
2018-07-30T10:34:17.360Z,6648.00
2018-07-30T10:35:17.314Z,6556.00
2018-07-30T10:36:17.270Z,6604.00
2018-07-30T10:37:17.225Z,6592.00
2018-07-30T10:38:17.338Z,6560.00
2018-07-30T10:39:17.138Z,6536.00
2018-07-30T10:40:17.095Z,6456.00
2018-07-30T10:41:17.047Z,6376.00
2018-07-30T10:42:17.002Z,6288.00
2018-07-30T10:43:16.961Z,6248.00
2018-07-30T10:44:16.914Z,6236.00
2018-07-30T10:45:16.869Z,6212.00
2018-07-30T10:46:16.836Z,6228.00
2018-07-30T10:47:16.781Z,6180.00
2018-07-30T10:48:16.735Z,6144.00
2018-07-30T10:49:16.689Z,6096.00
2018-07-30T10:50:16.644Z,6076.00
2018-07-30T10:51:16.600Z,6100.00
2018-07-30T10:52:16.556Z,6028.00
2018-07-30T10:53:16.509Z,5896.00
2018-07-30T10:54:16.463Z,5828.00
2018-07-30T10:55:16.416Z,5796.00
2018-07-30T10:56:16.372Z,5760.00
2018-07-30T10:57:16.329Z,5760.00
2018-07-30T10:58:16.282Z,5744.00
2018-07-30T10:59:16.236Z,5760.00
2018-07-30T11:00:16.191Z,5660.00
2018-07-30T11:01:16.147Z,5584.00
2018-07-30T11:02:16.100Z,5528.00
2018-07-30T11:03:16.055Z,5472.00
2018-07-30T11:04:16.008Z,5420.00
2018-07-30T11:05:15.963Z,5352.00
2018-07-30T11:06:15.917Z,5284.00
2018-07-30T11:07:15.871Z,5220.00
2018-07-30T11:08:15.824Z,5164.00
2018-07-30T11:09:15.776Z,5112.00
2018-07-30T11:10:15.733Z,5068.00
2018-07-30T11:11:15.686Z,4952.00
2018-07-30T11:12:15.640Z,4772.00
2018-07-30T11:13:15.594Z,4648.00
2018-07-30T11:14:15.547Z,4548.00
2018-07-30T11:15:15.500Z,4516.00
2018-07-30T11:16:15.453Z,4468.00
2018-07-30T11:17:15.409Z,4392.00
2018-07-30T11:18:15.359Z,4292.00
2018-07-30T11:19:15.313Z,4184.00
2018-07-30T11:20:15.265Z,4024.00
2018-07-30T11:21:15.217Z,3624.00
2018-07-30T11:22:15.169Z,3260.00
2018-07-30T11:23:15.123Z,3192.00
2018-07-30T11:24:15.074Z,3184.00
2018-07-30T11:25:15.070Z,3192.00
2018-07-30T11:26:14.981Z,3208.00
2018-07-30T11:27:14.928Z,3240.00
2018-07-30T11:28:14.884Z,3248.00
2018-07-30T11:29:14.832Z,3252.00
2018-07-30T11:30:14.782Z,3248.00
2018-07-30T11:31:14.734Z,3208.00
2018-07-30T11:32:14.683Z,3192.00
2018-07-30T11:33:14.634Z,3176.00
2018-07-30T11:34:14.584Z,3208.00
2018-07-30T11:35:14.533Z,3232.00
2018-07-30T11:36:14.485Z,3252.00
2018-07-30T11:37:14.433Z,3312.00
2018-07-30T11:38:14.384Z,3404.00
2018-07-30T11:39:14.334Z,3460.00
2018-07-30T11:40:14.282Z,3500.00
2018-07-30T11:41:14.232Z,3524.00
2018-07-30T11:42:14.181Z,3508.00
2018-07-30T11:43:14.129Z,3532.00
2018-07-30T11:44:14.080Z,3552.00
2018-07-30T11:45:14.028Z,3600.00
2018-07-30T11:46:13.975Z,3648.00
2018-07-30T11:47:13.928Z,2520.00
2018-07-30T11:48:13.903Z,2348.00
2018-07-30T11:49:13.827Z,2380.00
2018-07-30T11:50:13.777Z,3508.00
2018-07-30T11:51:13.720Z,3600.00
2018-07-30T11:52:13.668Z,3448.00
2018-07-30T11:53:13.617Z,3724.00
2018-07-30T11:54:13.606Z,3880.00
2018-07-30T11:55:13.514Z,3880.00
2018-07-30T11:56:13.461Z,2632.00
2018-07-30T11:57:13.411Z,3224.00
2018-07-30T11:58:13.359Z,3464.00
2018-07-30T11:59:13.307Z,3156.00
2018-07-30T12:00:13.256Z,2324.00
2018-07-30T12:01:13.215Z,2924.00
2018-07-30T12:02:13.151Z,2244.00
2018-07-30T12:03:13.099Z,2184.00
2018-07-30T12:04:13.044Z,2168.00
2018-07-30T12:05:12.993Z,2936.00
2018-07-30T12:06:12.941Z,3456.00
2018-07-30T12:07:12.890Z,3448.00
2018-07-30T12:08:12.837Z,3392.00
2018-07-30T12:09:12.788Z,2268.00
2018-07-30T12:10:12.732Z,2212.00
2018-07-30T12:11:12.679Z,2872.00
2018-07-30T12:12:12.629Z,3320.00
2018-07-30T12:13:12.577Z,3436.00
2018-07-30T12:14:12.523Z,3468.00
2018-07-30T12:15:12.471Z,3268.00
2018-07-30T12:16:12.419Z,3420.00
2018-07-30T12:17:12.368Z,2792.00
2018-07-30T12:18:12.313Z,2000.00
2018-07-30T12:19:12.259Z,2060.00
2018-07-30T12:20:12.208Z,2152.00
2018-07-30T12:21:12.154Z,2232.00
2018-07-30T12:22:12.103Z,2264.00
2018-07-30T12:23:12.050Z,2288.00
2018-07-30T12:24:12.001Z,2464.00
2018-07-30T12:25:11.944Z,2384.00
2018-07-30T12:26:11.891Z,2296.00
2018-07-30T12:27:11.839Z,2104.00
2018-07-30T12:28:11.786Z,2072.00